Time;durP1;ratioP1;P1;durP2;ratioP2;P2;SDS_P1;SDS_P2;PMS_P1;PMS_P2;Temp;Humidity;BMP_temperature;BMP_pressure;BME280_temperature;BME280_humidity;BME280_pressure;Samples;Min_cycle;Max_cycle;Signal;HPM_P1;HPM_P2
2022/11/26 00:00:30;;;;;;;20.15;6.85;;;;;;;8.21;85.97;101423.25;5004501;28;20404;-76
2022/11/26 00:02:55;;;;;;;26.10;6.60;;;;;;;8.24;85.26;101425.53;5002534;28;20406;-76
2022/11/26 00:05:21;;;;;;;13.83;5.97;;;;;;;8.29;85.73;101425.81;4993903;28;20406;-76
2022/11/26 00:07:55;;;;;;;19.15;6.50;;;;;;;8.33;85.32;101424.38;5003695;28;20930;-76
2022/11/26 00:10:30;;;;;;;19.60;6.38;;;;;;;8.36;85.36;101434.75;4999679;28;20426;-76
2022/11/26 00:12:56;;;;;;;12.85;5.93;;;;;;;8.39;85.04;101441.59;5002560;28;20752;-76
2022/11/26 00:15:24;;;;;;;15.60;5.95;;;;;;;8.38;85.21;101438.06;5004044;28;20882;-76
2022/11/26 00:17:51;;;;;;;15.38;5.78;;;;;;;8.43;85.28;101438.25;4994506;28;20414;-76
2022/11/26 00:20:19;;;;;;;9.55;5.15;;;;;;;8.46;85.51;101437.88;4998239;28;20403;-76
2022/11/26 00:22:54;;;;;;;16.70;5.47;;;;;;;8.49;85.18;101445.56;5002717;28;20406;-76
2022/11/26 00:25:22;;;;;;;12.73;5.13;;;;;;;8.51;85.62;101448.88;5008739;28;20721;-76
2022/11/26 00:27:49;;;;;;;14.85;5.93;;;;;;;8.54;85.42;101442.22;5002837;28;20754;-76
2022/11/26 00:30:18;;;;;;;18.88;5.72;;;;;;;8.57;85.20;101456.16;5007763;28;20825;-76
2022/11/26 00:32:43;;;;;;;21.27;5.47;;;;;;;8.58;84.97;101459.69;4995103;28;20398;-76
2022/11/26 00:35:08;;;;;;;19.17;5.65;;;;;;;8.59;84.88;101459.50;5000635;28;20423;-76
2022/11/26 00:37:39;;;;;;;20.43;6.13;;;;;;;8.62;85.06;101467.19;5000589;28;20412;-76
2022/11/26 00:40:05;;;;;;;12.93;4.80;;;;;;;8.61;85.18;101464.69;5008047;28;20397;-76
2022/11/26 00:42:31;;;;;;;16.65;5.20;;;;;;;8.62;85.18;101464.47;5001623;28;20397;-76
2022/11/26 00:44:56;;;;;;;17.50;5.80;;;;;;;8.64;84.75;101459.69;5006398;28;20426;-76
2022/11/26 00:47:21;;;;;;;10.00;5.17;;;;;;;8.63;84.63;101462.59;5009113;28;20444;-76
2022/11/26 00:49:46;;;;;;;19.07;5.43;;;;;;;8.65;84.88;101471.34;5005803;28;20405;-76
2022/11/26 00:52:30;;;;;;;12.17;5.70;;;;;;;8.64;85.19;101475.91;4998080;28;20417;-76
2022/11/26 00:54:56;;;;;;;16.58;5.63;;;;;;;8.65;85.09;101485.69;5012742;28;20489;-76
2022/11/26 00:57:21;;;;;;;13.23;5.50;;;;;;;8.66;84.98;101498.13;4997683;28;20501;-76
2022/11/26 00:59:46;;;;;;;14.37;5.10;;;;;;;8.68;84.79;101501.47;5006848;28;20495;-76
2022/11/26 01:02:11;;;;;;;13.77;5.50;;;;;;;8.70;84.85;101498.56;5008712;28;20904;-76
2022/11/26 01:04:37;;;;;;;16.47;5.30;;;;;;;8.70;84.50;101510.19;5003844;28;20412;-76
2022/11/26 01:07:02;;;;;;;14.87;5.57;;;;;;;8.72;85.01;101507.31;5011617;28;20423;-76
2022/11/26 01:09:27;;;;;;;14.43;5.50;;;;;;;8.72;85.07;101515.41;5004698;28;20815;-76
2022/11/26 01:11:53;;;;;;;15.37;5.50;;;;;;;8.72;84.60;101518.94;5001671;28;20421;-76
2022/11/26 01:14:19;;;;;;;17.13;5.37;;;;;;;8.71;84.50;101519.97;4998272;28;20414;-76
2022/11/26 01:16:46;;;;;;;17.88;6.05;;;;;;;8.70;85.13;101523.72;5001235;28;20410;-76
2022/11/26 01:19:13;;;;;;;11.98;4.65;;;;;;;8.70;84.86;101531.81;5005386;28;20729;-76
2022/11/26 01:21:39;;;;;;;11.45;4.57;;;;;;;8.70;84.71;101537.22;5007126;28;20434;-76
2022/11/26 01:24:04;;;;;;;11.57;4.70;;;;;;;8.71;85.19;101540.75;5006768;28;20434;-76
2022/11/26 01:26:35;;;;;;;12.65;5.07;;;;;;;8.70;84.85;101539.09;5009329;28;20896;-76
2022/11/26 01:29:00;;;;;;;14.23;5.60;;;;;;;8.69;84.95;101545.56;5009141;28;20408;-76
2022/11/26 01:31:28;;;;;;;14.27;5.60;;;;;;;8.68;84.91;101550.13;4998001;28;20407;-76
2022/11/26 01:33:54;;;;;;;12.57;4.82;;;;;;;8.68;84.91;101558.22;5002340;28;20412;-76
2022/11/26 01:36:25;;;;;;;16.40;5.57;;;;;;;8.68;84.70;101562.78;4998500;28;20419;-76
2022/11/26 01:38:56;;;;;;;13.95;5.47;;;;;;;8.69;85.11;101562.56;5006401;28;20416;-76
2022/11/26 01:41:51;;;;;;;12.27;5.53;;;;;;;8.70;84.79;101560.72;5002085;28;20844;-76
2022/11/26 01:44:22;;;;;;;16.63;5.53;;;;;;;8.68;84.72;101569.03;5000076;28;20909;-76
2022/11/26 01:46:48;;;;;;;18.02;5.55;;;;;;;8.67;84.84;101577.34;5018373;28;20898;-76
2022/11/26 01:49:30;;;;;;;12.13;5.65;;;;;;;8.69;85.25;101578.78;5003291;28;20758;-76
2022/11/26 01:52:20;;;;;;;13.23;5.13;;;;;;;8.71;84.97;101584.84;5002474;28;20409;-76
2022/11/26 01:54:47;;;;;;;15.05;5.30;;;;;;;8.68;84.72;101584.41;4994807;28;20418;-76
2022/11/26 01:57:25;;;;;;;14.93;4.90;;;;;;;8.67;84.89;101580.03;4997428;28;21013;-76
2022/11/26 01:59:53;;;;;;;15.37;5.07;;;;;;;8.68;85.03;101582.56;4998849;28;20393;-76
2022/11/26 02:02:21;;;;;;;13.23;5.10;;;;;;;8.68;85.29;101585.25;5012564;28;20404;-76
2022/11/26 02:05:02;;;;;;;15.60;5.35;;;;;;;8.70;85.15;101585.03;4999297;28;20905;-76
2022/11/26 02:07:27;;;;;;;15.25;5.47;;;;;;;8.66;85.02;101584.59;5001908;28;20868;-76
2022/11/26 02:09:53;;;;;;;11.97;5.23;;;;;;;8.69;84.91;101586.09;5002174;28;20452;-76
2022/11/26 02:12:19;;;;;;;15.40;5.30;;;;;;;8.70;85.04;101585.88;5002557;28;20901;-76
2022/11/26 02:14:45;;;;;;;14.98;5.32;;;;;;;8.71;85.08;101595.66;5002456;28;20458;-76
2022/11/26 02:17:35;;;;;;;16.25;5.47;;;;;;;8.71;85.36;101592.09;5009423;28;20437;-76
2022/11/26 02:20:22;;;;;;;13.00;4.85;;;;;;;8.72;85.27;101601.91;5008324;28;20451;-76
2022/11/26 02:22:48;;;;;;;14.30;5.07;;;;;;;8.71;84.96;101609.16;5001907;28;20406;-76
2022/11/26 02:25:26;;;;;;;14.33;4.87;;;;;;;8.73;84.80;101607.06;5002854;28;20465;-76
2022/11/26 02:28:00;;;;;;;13.32;5.13;;;;;;;8.73;84.63;101608.94;5001752;28;20920;-76
2022/11/26 02:30:29;;;;;;;14.38;5.05;;;;;;;8.73;84.96;101620.59;5005295;28;20424;-76
2022/11/26 02:33:03;;;;;;;15.07;5.40;;;;;;;8.74;84.83;101614.16;5007806;28;20405;-76
2022/11/26 02:35:37;;;;;;;12.10;5.20;;;;;;;8.76;84.86;101617.47;5003851;28;20991;-76
2022/11/26 02:38:24;;;;;;;13.85;4.75;;;;;;;8.74;84.67;101618.72;5008667;28;20412;-76
2022/11/26 02:40:50;;;;;;;15.38;5.03;;;;;;;8.74;85.09;101621.44;5002665;28;20404;-76
2022/11/26 02:43:16;;;;;;;17.83;5.85;;;;;;;8.73;84.65;101626.00;4997056;28;20430;-76
2022/11/26 02:45:47;;;;;;;16.17;5.43;;;;;;;8.71;84.87;101625.38;5000844;28;20980;-76
2022/11/26 02:48:18;;;;;;;14.82;5.25;;;;;;;8.72;84.65;101626.22;5002362;28;20403;-76
2022/11/26 02:50:50;;;;;;;13.73;5.23;;;;;;;8.71;84.74;101633.47;5009442;28;20403;-76
2022/11/26 02:53:19;;;;;;;13.45;4.97;;;;;;;8.72;84.81;101628.91;5010863;28;20397;-76
2022/11/26 02:55:51;;;;;;;18.50;5.13;;;;;;;8.67;85.15;101634.09;5003186;28;20428;-76
2022/11/26 02:58:18;;;;;;;17.92;5.15;;;;;;;8.68;85.06;101633.06;5004719;28;20445;-76
2022/11/26 03:00:47;;;;;;;15.00;6.85;;;;;;;8.67;85.13;101634.09;5004320;28;20424;-76
2022/11/26 03:03:22;;;;;;;13.73;5.07;;;;;;;8.66;85.19;101645.94;5010485;28;20784;-76
2022/11/26 03:05:52;;;;;;;13.98;5.40;;;;;;;8.64;85.14;101638.03;5005917;28;20495;-76
2022/11/26 03:08:18;;;;;;;15.23;5.57;;;;;;;8.60;85.08;101638.63;5004786;28;20750;-76
2022/11/26 03:10:44;;;;;;;14.30;5.05;;;;;;;8.61;84.89;101640.31;5005586;28;20401;-76
2022/11/26 03:13:09;;;;;;;15.70;5.17;;;;;;;8.58;85.27;101635.31;5007901;28;20403;-76
2022/11/26 03:15:34;;;;;;;15.57;5.63;;;;;;;8.58;84.99;101636.16;5004443;28;20420;-76
2022/11/26 03:18:00;;;;;;;17.60;5.20;;;;;;;8.57;85.09;101645.28;5002853;28;20405;-76
2022/11/26 03:20:25;;;;;;;16.53;5.70;;;;;;;8.61;85.22;101648.41;5004010;28;20401;-76
2022/11/26 03:22:50;;;;;;;13.50;5.37;;;;;;;8.62;85.38;101645.53;5006801;28;20729;-76
2022/11/26 03:25:15;;;;;;;14.27;5.22;;;;;;;8.64;84.99;101638.03;5001920;28;20406;-76
2022/11/26 03:27:41;;;;;;;16.73;5.43;;;;;;;8.63;84.89;101646.31;5000592;28;20407;-76
2022/11/26 03:30:07;;;;;;;18.13;7.35;;;;;;;8.64;84.99;101646.13;5000622;28;20410;-76
2022/11/26 03:32:32;;;;;;;13.13;5.13;;;;;;;8.61;84.55;101645.72;4995136;28;20469;-76
2022/11/26 03:34:57;;;;;;;12.10;5.32;;;;;;;8.60;84.87;101646.75;5005915;28;20424;-76
2022/11/26 03:37:23;;;;;;;15.63;5.17;;;;;;;8.60;85.06;101642.16;4999705;28;20417;-76
2022/11/26 03:39:48;;;;;;;16.70;5.40;;;;;;;8.65;84.97;101636.16;5004636;28;20406;-76
2022/11/26 03:42:13;;;;;;;19.73;5.70;;;;;;;8.64;84.39;101639.91;4998890;28;20473;-76
2022/11/26 03:44:39;;;;;;;17.00;5.37;;;;;;;8.65;84.41;101646.97;4993841;28;20505;-76
2022/11/26 03:47:04;;;;;;;17.20;5.70;;;;;;;8.63;84.78;101641.75;4992547;28;20509;-76
2022/11/26 03:49:29;;;;;;;18.07;6.17;;;;;;;8.59;84.93;101645.94;4994723;28;20490;-76
2022/11/26 03:51:55;;;;;;;14.67;5.10;;;;;;;8.50;85.19;101641.72;5008345;28;20488;-76
2022/11/26 03:54:20;;;;;;;13.70;5.43;;;;;;;8.48;85.00;101643.81;4996326;28;20426;-76
2022/11/26 03:56:45;;;;;;;14.83;5.80;;;;;;;8.46;84.96;101650.44;4999985;28;20426;-76
2022/11/26 03:59:10;;;;;;;14.77;5.50;;;;;;;8.46;85.35;101654.00;5005259;28;20433;-76
2022/11/26 04:01:36;;;;;;;14.02;5.60;;;;;;;8.50;85.13;101649.81;5006547;28;20409;-76
2022/11/26 04:04:01;;;;;;;18.77;5.90;;;;;;;8.55;85.04;101643.81;4999313;28;20417;-76
2022/11/26 04:06:27;;;;;;;13.88;5.50;;;;;;;8.53;84.54;101643.22;5000175;28;20412;-76
2022/11/26 04:08:52;;;;;;;12.82;5.53;;;;;;;8.49;85.17;101634.69;4998678;28;20400;-76
2022/11/26 04:11:17;;;;;;;11.80;5.70;;;;;;;8.49;85.01;101636.53;5015209;28;20460;-76
2022/11/26 04:13:43;;;;;;;13.65;5.18;;;;;;;8.48;84.58;101637.56;5013557;28;20401;-76
2022/11/26 04:16:08;;;;;;;15.50;6.00;;;;;;;8.45;84.99;101638.81;5009970;28;20404;-76
2022/11/26 04:18:34;;;;;;;15.20;5.83;;;;;;;8.41;85.10;101632.13;5012033;28;20405;-76
2022/11/26 04:20:59;;;;;;;10.80;5.13;;;;;;;8.36;84.96;101631.94;5011859;28;20868;-76
2022/11/26 04:23:25;;;;;;;14.77;5.95;;;;;;;8.32;85.31;101631.50;5012024;28;20478;-76
2022/11/26 04:25:50;;;;;;;11.20;5.40;;;;;;;8.30;84.73;101630.84;5004820;28;20412;-76
2022/11/26 04:28:15;;;;;;;18.50;5.70;;;;;;;8.30;85.15;101635.41;5002790;28;20473;-76
2022/11/26 04:30:41;;;;;;;23.60;6.83;;;;;;;8.26;85.39;101631.44;5006164;28;20422;-76
2022/11/26 04:33:07;;;;;;;16.42;5.85;;;;;;;8.24;85.15;101628.06;5011199;28;20399;-76
2022/11/26 04:35:32;;;;;;;15.07;6.43;;;;;;;8.23;85.00;101632.66;5004959;28;20417;-76
2022/11/26 04:37:57;;;;;;;17.13;5.50;;;;;;;8.22;84.95;101636.41;5003902;28;20419;-76
2022/11/26 04:40:22;;;;;;;17.40;5.60;;;;;;;8.23;85.29;101640.75;5007272;28;20419;-76
2022/11/26 04:42:48;;;;;;;15.77;5.40;;;;;;;8.24;85.43;101647.81;5003995;28;20409;-76
2022/11/26 04:45:13;;;;;;;14.50;5.27;;;;;;;8.22;85.11;101649.06;5011661;28;20416;-76
2022/11/26 04:47:38;;;;;;;19.47;5.43;;;;;;;8.20;84.95;101651.94;5011871;28;20397;-76
2022/11/26 04:50:05;;;;;;;10.80;4.77;;;;;;;8.24;85.38;101647.81;5007584;28;20897;-76
2022/11/26 04:52:30;;;;;;;11.02;4.95;;;;;;;8.27;84.94;101657.38;5011932;28;20472;-76
2022/11/26 04:54:55;;;;;;;16.27;5.20;;;;;;;8.29;85.54;101656.19;5007238;28;20515;-76
2022/11/26 04:57:21;;;;;;;17.03;5.47;;;;;;;8.29;85.08;101660.75;5003834;28;20428;-76
2022/11/26 04:59:46;;;;;;;12.90;5.10;;;;;;;8.27;85.28;101660.09;5007103;28;20396;-76
2022/11/26 05:02:11;;;;;;;11.43;4.93;;;;;;;8.27;85.02;101660.09;5001279;28;20464;-76
2022/11/26 05:04:36;;;;;;;14.40;5.63;;;;;;;8.24;84.90;101661.31;5007055;28;20476;-76
2022/11/26 05:07:02;;;;;;;16.70;5.37;;;;;;;8.22;85.16;101660.69;5011489;28;20915;-76
2022/11/26 05:09:28;;;;;;;12.32;4.90;;;;;;;8.19;85.52;101668.38;5017165;28;20395;-76
2022/11/26 05:11:53;;;;;;;13.97;5.63;;;;;;;8.15;85.28;101665.22;4998254;28;20930;-76
2022/11/26 05:14:18;;;;;;;15.53;5.23;;;;;;;8.12;85.45;101676.44;5015286;28;20423;-76
2022/11/26 05:16:43;;;;;;;12.87;5.53;;;;;;;8.09;85.26;101681.41;4997256;28;20414;-76
2022/11/26 05:19:09;;;;;;;9.50;4.53;;;;;;;8.07;85.64;101686.13;5004000;28;20398;-76
2022/11/26 05:21:34;;;;;;;17.45;5.97;;;;;;;8.03;85.45;101691.13;5008240;28;20831;-76
2022/11/26 05:23:59;;;;;;;10.93;4.70;;;;;;;8.01;85.60;101695.03;5011510;28;20408;-76
2022/11/26 05:26:25;;;;;;;13.50;4.70;;;;;;;7.96;85.59;101697.50;5011667;28;20477;-76
2022/11/26 05:28:50;;;;;;;12.70;5.03;;;;;;;7.94;85.73;101711.19;5005107;28;20416;-76
2022/11/26 05:31:15;;;;;;;16.50;5.70;;;;;;;7.91;85.55;101716.97;5011408;28;20428;-76
2022/11/26 05:33:41;;;;;;;14.63;5.03;;;;;;;7.87;85.59;101717.59;5003633;28;20798;-76
2022/11/26 05:36:06;;;;;;;13.27;5.63;;;;;;;7.87;86.08;101717.59;4995933;28;20459;-76
2022/11/26 05:38:31;;;;;;;18.15;6.00;;;;;;;7.85;86.06;101717.78;5005450;28;20412;-76
2022/11/26 05:40:57;;;;;;;17.30;6.40;;;;;;;7.83;85.90;101715.28;5007119;28;20793;-76
2022/11/26 05:43:22;;;;;;;13.43;5.17;;;;;;;7.82;86.08;101720.88;5016882;28;20410;-76
2022/11/26 05:45:47;;;;;;;19.37;5.47;;;;;;;7.83;85.70;101720.69;5011346;28;20421;-76
2022/11/26 05:48:13;;;;;;;17.53;5.33;;;;;;;7.83;85.96;101719.84;5015215;28;20403;-76
2022/11/26 05:50:38;;;;;;;16.65;6.25;;;;;;;7.83;85.54;101728.78;5013548;28;20416;-76
2022/11/26 05:53:03;;;;;;;16.03;5.67;;;;;;;7.86;85.84;101726.72;5005570;28;20925;-76
2022/11/26 05:55:29;;;;;;;16.60;5.93;;;;;;;7.88;85.78;101727.34;5013986;28;20482;-76
2022/11/26 05:57:54;;;;;;;19.15;6.03;;;;;;;7.90;85.62;101730.69;5008626;28;20466;-76
2022/11/26 06:00:20;;;;;;;15.98;6.00;;;;;;;7.91;85.45;101727.78;5002736;28;20393;-76
2022/11/26 06:02:45;;;;;;;11.27;5.90;;;;;;;7.94;85.48;101740.03;5008827;28;20486;-76
2022/11/26 06:05:10;;;;;;;18.20;5.77;;;;;;;7.93;85.53;101752.72;5004202;28;20414;-76
2022/11/26 06:07:36;;;;;;;20.37;6.63;;;;;;;7.90;85.80;101750.44;5002449;28;20795;-76
2022/11/26 06:10:03;;;;;;;15.53;5.73;;;;;;;7.91;85.99;101751.22;5014723;28;20871;-76
2022/11/26 06:12:28;;;;;;;17.48;6.50;;;;;;;7.94;86.18;101758.94;5001516;28;20453;-76
2022/11/26 06:14:53;;;;;;;18.03;6.73;;;;;;;7.94;85.81;101765.19;5011066;28;20892;-76
2022/11/26 06:17:19;;;;;;;15.63;5.97;;;;;;;7.94;85.79;101767.88;5002170;28;20821;-76
2022/11/26 06:19:44;;;;;;;15.67;6.60;;;;;;;7.94;86.11;101775.97;5004717;28;20402;-76
2022/11/26 06:22:10;;;;;;;16.25;6.53;;;;;;;7.92;85.91;101769.09;5002086;28;20899;-77
2022/11/26 06:24:36;;;;;;;21.95;6.85;;;;;;;7.88;85.86;101779.47;5003342;28;20410;-76
2022/11/26 06:27:01;;;;;;;18.38;7.13;;;;;;;7.90;85.91;101785.50;5001556;28;20498;-76
2022/11/26 06:29:27;;;;;;;14.23;6.28;;;;;;;7.88;86.49;101784.03;5004023;28;20491;-76
2022/11/26 06:31:52;;;;;;;16.80;6.40;;;;;;;7.92;86.32;101790.69;5008363;28;20407;-76
2022/11/26 06:34:17;;;;;;;21.43;7.47;;;;;;;7.93;86.11;101786.97;5006497;28;20952;-76
2022/11/26 06:36:42;;;;;;;19.37;7.10;;;;;;;7.93;86.53;101792.38;5006903;28;20395;-76
2022/11/26 06:39:09;;;;;;;23.33;7.17;;;;;;;7.95;85.91;101793.00;5008648;28;20405;-76
2022/11/26 06:41:34;;;;;;;16.20;7.32;;;;;;;7.92;85.93;101793.41;5008221;28;20835;-76
2022/11/26 06:44:00;;;;;;;23.73;7.27;;;;;;;7.93;86.18;101795.06;5008460;28;20405;-76
2022/11/26 06:46:26;;;;;;;16.75;7.68;;;;;;;7.90;86.06;101806.25;5004619;28;20411;-76
2022/11/26 06:48:51;;;;;;;13.43;7.77;;;;;;;7.89;86.25;101807.28;5007132;28;20429;-76
2022/11/26 06:51:20;;;;;;;26.10;10.70;;;;;;;7.92;86.59;101807.72;5001985;28;20733;-76
2022/11/26 06:53:46;;;;;;;32.47;12.87;;;;;;;7.95;86.49;101817.31;5009953;28;20970;-76
2022/11/26 06:56:13;;;;;;;27.80;12.03;;;;;;;8.02;86.42;101821.72;5013421;28;20393;-76
2022/11/26 06:58:38;;;;;;;36.03;13.50;;;;;;;8.03;85.92;101825.28;4999295;28;20405;-77
2022/11/26 07:01:12;;;;;;;27.50;10.33;;;;;;;8.00;85.76;101829.19;5005480;28;20400;-76
2022/11/26 07:03:37;;;;;;;18.25;7.50;;;;;;;8.02;86.06;101826.28;5008429;28;20944;-76
2022/11/26 07:06:03;;;;;;;21.27;8.82;;;;;;;8.01;86.30;101822.75;5003503;28;20488;-76
2022/11/26 07:08:29;;;;;;;19.70;7.63;;;;;;;8.02;85.97;101820.91;5021367;28;20392;-76
2022/11/26 07:10:54;;;;;;;20.42;7.38;;;;;;;8.00;85.96;101821.06;5015148;28;20401;-76
2022/11/26 07:13:20;;;;;;;22.17;7.97;;;;;;;8.04;85.86;101825.06;4998166;28;20480;-76
2022/11/26 07:15:45;;;;;;;19.97;8.33;;;;;;;8.05;85.59;101821.34;4996870;28;20987;-76
2022/11/26 07:18:10;;;;;;;18.27;8.43;;;;;;;8.04;85.68;101826.94;5008481;28;20389;-76
2022/11/26 07:20:36;;;;;;;19.73;8.20;;;;;;;8.05;85.90;101834.84;5007051;28;20432;-76
2022/11/26 07:23:03;;;;;;;27.02;8.18;;;;;;;8.09;86.08;101836.13;5016403;28;20399;-76
2022/11/26 07:25:29;;;;;;;21.40;8.23;;;;;;;8.07;85.86;101838.16;5013212;28;20396;-76
2022/11/26 07:27:54;;;;;;;22.77;8.50;;;;;;;8.08;86.15;101855.22;5007259;28;20421;-77
2022/11/26 07:30:20;;;;;;;20.10;8.57;;;;;;;8.10;85.53;101839.66;5011710;28;20389;-76
2022/11/26 07:32:45;;;;;;;23.13;8.60;;;;;;;8.08;86.04;101850.66;5004932;28;20413;-76
2022/11/26 07:35:10;;;;;;;24.43;8.23;;;;;;;8.09;85.81;101854.19;5008752;28;20423;-76
2022/11/26 07:37:36;;;;;;;18.23;7.83;;;;;;;8.07;85.82;101854.38;5008021;28;20398;-76
2022/11/26 07:40:02;;;;;;;15.90;7.43;;;;;;;8.03;85.63;101855.81;5007699;28;20400;-76
2022/11/26 07:42:30;;;;;;;22.60;8.43;;;;;;;7.95;85.52;101855.94;5007267;28;20408;-76
2022/11/26 07:44:55;;;;;;;23.50;7.93;;;;;;;7.94;85.41;101859.66;5006485;28;20784;-76
2022/11/26 07:47:21;;;;;;;22.63;8.30;;;;;;;7.93;85.28;101859.88;5012645;28;20448;-77
2022/11/26 07:49:46;;;;;;;19.47;8.57;;;;;;;7.89;85.59;101864.81;5002968;28;20772;-76
2022/11/26 07:52:11;;;;;;;26.53;9.07;;;;;;;7.92;85.96;101853.63;5009228;28;20572;-76
2022/11/26 07:54:37;;;;;;;17.47;7.90;;;;;;;7.95;85.40;101855.09;5007439;28;20408;-76
2022/11/26 07:57:02;;;;;;;20.30;8.27;;;;;;;7.97;85.48;101855.75;5011294;28;20404;-76
2022/11/26 07:59:27;;;;;;;20.70;8.90;;;;;;;7.98;85.58;101852.00;5008348;28;20406;-77
2022/11/26 08:01:52;;;;;;;19.97;8.33;;;;;;;7.96;85.51;101864.88;5005243;28;20431;-76
2022/11/26 08:04:18;;;;;;;19.85;8.15;;;;;;;7.96;84.99;101873.81;5001003;28;20489;-77
2022/11/26 08:06:43;;;;;;;17.90;7.53;;;;;;;7.99;85.19;101876.13;5000936;28;20398;-77
2022/11/26 08:09:09;;;;;;;21.17;8.00;;;;;;;8.01;85.28;101881.31;5009388;28;20468;-77
2022/11/26 08:11:35;;;;;;;21.53;8.70;;;;;;;8.00;84.93;101880.47;4999499;28;20447;-77
2022/11/26 08:14:07;;;;;;;21.10;8.33;;;;;;;7.97;85.09;101880.84;5000965;28;20413;-77
2022/11/26 08:16:33;;;;;;;20.27;8.85;;;;;;;7.96;84.93;101890.00;5008761;28;20405;-77
2022/11/26 08:19:07;;;;;;;22.77;9.65;;;;;;;7.96;85.37;101895.41;5003700;28;20837;-77
2022/11/26 08:21:33;;;;;;;18.52;8.95;;;;;;;8.01;85.16;101892.94;5000104;28;20489;-77
2022/11/26 08:23:59;;;;;;;20.10;9.05;;;;;;;8.08;85.54;101893.00;4996607;28;20420;-77
2022/11/26 08:26:25;;;;;;;19.83;9.10;;;;;;;8.13;85.25;101893.28;4994969;28;20419;-77
2022/11/26 08:28:52;;;;;;;21.90;9.47;;;;;;;8.20;84.88;101897.69;4990238;28;20412;-77
2022/11/26 08:31:17;;;;;;;21.02;9.90;;;;;;;8.26;84.85;101886.13;4996254;28;20418;-77
2022/11/26 08:33:44;;;;;;;23.55;10.10;;;;;;;8.32;84.63;101885.38;4996638;28;20766;-79
2022/11/26 08:36:10;;;;;;;27.63;9.60;;;;;;;8.36;84.10;101885.81;4989346;28;20765;-78
2022/11/26 08:38:36;;;;;;;28.98;14.02;;;;;;;8.40;84.14;101884.38;4991389;28;20415;-77
2022/11/26 08:41:03;;;;;;;32.78;15.18;;;;;;;8.44;84.00;101896.47;4996382;28;21147;-78
2022/11/26 08:43:29;;;;;;;36.45;14.85;;;;;;;8.38;84.34;101899.13;4991410;28;20434;-77
2022/11/26 08:45:56;;;;;;;31.73;12.88;;;;;;;8.38;84.48;101902.66;5002107;28;20749;-77
2022/11/26 08:48:23;;;;;;;26.63;11.57;;;;;;;8.46;84.25;101899.84;5005834;28;20717;-77
2022/11/26 08:50:49;;;;;;;29.02;12.85;;;;;;;8.50;84.48;101906.50;5004624;28;20405;-77
2022/11/26 08:53:14;;;;;;;35.28;14.20;;;;;;;8.54;83.93;101896.97;5002314;28;20818;-78
2022/11/26 08:55:39;;;;;;;20.07;9.70;;;;;;;8.59;84.03;101905.34;5000238;28;20496;-77
2022/11/26 08:58:05;;;;;;;19.75;9.23;;;;;;;8.67;83.85;101910.56;5005110;28;20410;-77
2022/11/26 09:00:30;;;;;;;18.80;9.27;;;;;;;8.81;84.04;101914.22;5001099;28;20839;-78
2022/11/26 09:02:55;;;;;;;20.97;9.27;;;;;;;8.89;83.87;101902.41;5004105;28;20499;-77
2022/11/26 09:05:21;;;;;;;20.97;10.43;;;;;;;8.96;83.18;101901.41;5010541;28;20462;-77
2022/11/26 09:07:46;;;;;;;22.07;10.17;;;;;;;8.95;83.00;101910.56;5011437;28;20492;-78
2022/11/26 09:10:12;;;;;;;31.25;12.93;;;;;;;8.96;83.35;101911.41;5010508;28;20827;-77
2022/11/26 09:12:37;;;;;;;27.40;12.60;;;;;;;8.95;83.53;101915.13;5008512;28;20452;-77
2022/11/26 09:15:03;;;;;;;22.73;10.17;;;;;;;8.98;83.50;101914.72;5007495;28;20797;-77
2022/11/26 09:17:28;;;;;;;28.35;11.82;;;;;;;9.04;83.30;101913.94;5013124;28;20395;-77
2022/11/26 09:19:53;;;;;;;38.97;15.23;;;;;;;9.11;83.08;101920.22;5004419;28;20917;-77
2022/11/26 09:22:19;;;;;;;24.93;9.60;;;;;;;9.16;82.82;101921.28;5006679;28;20416;-76
2022/11/26 09:24:44;;;;;;;18.23;9.13;;;;;;;9.17;83.18;101909.44;5006572;28;20392;-77
2022/11/26 09:27:10;;;;;;;17.60;9.07;;;;;;;9.19;82.66;101903.81;5010695;28;20458;-75
2022/11/26 09:29:36;;;;;;;21.08;7.95;;;;;;;9.20;82.87;101909.03;5006777;28;20417;-76
2022/11/26 09:32:02;;;;;;;13.57;7.35;;;;;;;9.26;82.55;101915.50;5005808;28;20417;-77
2022/11/26 09:34:28;;;;;;;21.50;8.50;;;;;;;9.32;82.31;101914.69;5008817;28;20420;-77
2022/11/26 09:36:53;;;;;;;17.67;7.03;;;;;;;9.34;82.26;101920.75;5014040;28;20416;-77
2022/11/26 09:39:18;;;;;;;23.60;6.75;;;;;;;9.43;82.04;101922.25;5006335;28;20422;-78
2022/11/26 09:42:02;;;;;;;20.70;6.73;;;;;;;9.50;81.88;101928.50;5010612;28;20904;-77
2022/11/26 09:44:57;;;;;;;14.05;4.82;;;;;;;9.47;81.97;101926.22;5007940;28;20448;-77
2022/11/26 09:47:27;;;;;;;19.77;5.32;;;;;;;9.40;81.69;101922.63;5000402;28;20440;-76
2022/11/26 09:49:58;;;;;;;17.70;5.45;;;;;;;9.45;81.66;101924.75;4992671;28;20414;-78
2022/11/26 09:52:27;;;;;;;17.17;7.60;;;;;;;9.48;81.72;101925.19;5008455;28;20709;-77
2022/11/26 09:55:15;;;;;;;32.20;11.20;;;;;;;9.66;81.39;101916.50;5009895;28;20418;-78
2022/11/26 09:57:48;;;;;;;35.35;13.32;;;;;;;9.82;80.75;101903.41;5008002;28;20412;-77
2022/11/26 10:00:53;;;;;;;44.65;14.07;;;;;;;9.77;80.71;101903.22;5010284;28;20409;-78
2022/11/26 10:03:21;;;;;;;38.45;13.95;;;;;;;9.83;80.55;101896.97;5006715;28;20443;-77
2022/11/26 10:06:31;;;;;;;31.85;13.35;;;;;;;9.93;80.24;101898.44;5001602;28;20927;-77
2022/11/26 10:09:02;;;;;;;29.30;11.38;;;;;;;9.99;79.88;101906.56;5011919;28;20461;-78
2022/11/26 10:11:47;;;;;;;19.33;7.75;;;;;;;10.04;79.75;101908.69;5007045;28;20900;-77
2022/11/26 10:14:22;;;;;;;12.57;5.63;;;;;;;10.06;79.70;101912.00;5013035;28;20412;-78
2022/11/26 10:17:06;;;;;;;17.17;4.97;;;;;;;10.02;79.77;101916.16;5004570;28;20402;-78
2022/11/26 10:19:53;;;;;;;14.07;4.97;;;;;;;10.00;79.64;101923.66;5007752;28;20737;-79
2022/11/26 10:22:31;;;;;;;17.40;5.40;;;;;;;10.08;79.24;101921.59;4999558;28;20867;-77
2022/11/26 10:24:58;;;;;;;15.23;4.63;;;;;;;10.12;79.41;101920.13;5032530;28;20872;-77
2022/11/26 10:27:29;;;;;;;15.82;5.43;;;;;;;10.23;79.11;101925.00;5008608;28;20417;-78
2022/11/26 10:30:01;;;;;;;12.63;6.35;;;;;;;10.31;78.74;101922.06;5007982;28;20900;-77
2022/11/26 10:32:34;;;;;;;17.93;6.67;;;;;;;10.36;78.50;101919.56;5004205;28;20912;-77
2022/11/26 10:34:59;;;;;;;17.20;6.65;;;;;;;10.41;78.29;101922.47;5001730;28;20423;-78
2022/11/26 10:37:27;;;;;;;15.30;7.03;;;;;;;10.45;78.01;101920.19;5007521;28;20409;-77
2022/11/26 10:40:17;;;;;;;16.70;7.22;;;;;;;10.44;78.10;101921.22;5002463;28;20872;-84
2022/11/26 10:42:55;;;;;;;14.85;6.72;;;;;;;10.41;78.26;101916.22;4994208;28;20489;-79
2022/11/26 10:45:33;;;;;;;14.00;5.20;;;;;;;10.40;78.12;101920.84;5003731;28;20433;-79
2022/11/26 10:48:17;;;;;;;14.32;5.15;;;;;;;10.39;77.84;101916.44;5008710;28;20424;-79
2022/11/26 10:50:58;;;;;;;12.20;5.13;;;;;;;10.35;78.00;101909.78;4999095;28;20417;-78
2022/11/26 10:53:24;;;;;;;17.27;5.43;;;;;;;10.48;77.85;101905.38;5001838;28;20417;-79
2022/11/26 10:55:52;;;;;;;17.67;5.25;;;;;;;10.48;77.37;101905.38;4995675;28;20427;-78
2022/11/26 10:58:31;;;;;;;10.10;4.85;;;;;;;10.38;77.43;101898.50;4995952;28;20448;-78
2022/11/26 11:01:01;;;;;;;16.93;5.60;;;;;;;10.27;77.71;101901.84;4998640;28;20408;-78
2022/11/26 11:03:45;;;;;;;14.32;6.63;;;;;;;10.21;78.02;101899.13;5006980;28;20411;-78
2022/11/26 11:06:19;;;;;;;20.73;5.22;;;;;;;10.11;78.17;101899.50;4989606;28;20747;-78
2022/11/26 11:08:49;;;;;;;17.30;5.80;;;;;;;10.21;77.80;101899.13;5002446;28;20497;-79
2022/11/26 11:11:25;;;;;;;19.37;6.17;;;;;;;10.39;77.35;101897.47;5002808;28;20420;-78
2022/11/26 11:13:51;;;;;;;18.37;6.43;;;;;;;10.54;76.84;101894.53;5002164;28;20748;-79
2022/11/26 11:16:25;;;;;;;16.80;6.30;;;;;;;10.69;76.61;101886.19;4999873;28;20413;-79
2022/11/26 11:19:01;;;;;;;21.63;8.35;;;;;;;10.76;76.30;101877.00;5000651;28;20422;-79
2022/11/26 11:21:33;;;;;;;23.73;9.13;;;;;;;10.84;76.27;101892.19;4994529;28;20402;-78
2022/11/26 11:24:20;;;;;;;17.27;7.60;;;;;;;10.89;76.08;101882.41;4998477;28;20410;-79
2022/11/26 11:26:54;;;;;;;18.02;7.43;;;;;;;10.86;75.97;101885.53;5004283;28;20411;-79
2022/11/26 11:29:28;;;;;;;19.27;7.50;;;;;;;10.80;75.65;101883.66;4997667;28;20513;-79